sensor_id;sensor_type;location;lat;lon;timestamp;P1;durP1;ratioP1;P2;durP2;ratioP2
13795;SDS011;40911;51.552;9.874;2023-07-13T00:02:18;3.00;;;1.70;;
13795;SDS011;40911;51.552;9.874;2023-07-13T00:15:25;5.13;;;2.37;;
13795;SDS011;40911;51.552;9.874;2023-07-13T00:17:50;5.25;;;2.13;;
13795;SDS011;40911;51.552;9.874;2023-07-13T00:20:12;2.22;;;1.80;;
13795;SDS011;40911;51.552;9.874;2023-07-13T00:22:34;8.95;;;2.22;;
13795;SDS011;40911;51.552;9.874;2023-07-13T00:27:17;4.47;;;2.25;;
13795;SDS011;40911;51.552;9.874;2023-07-13T00:29:39;7.05;;;1.77;;
13795;SDS011;40911;51.552;9.874;2023-07-13T00:32:03;3.45;;;1.90;;
13795;SDS011;40911;51.552;9.874;2023-07-13T00:34:26;3.53;;;2.10;;
13795;SDS011;40911;51.552;9.874;2023-07-13T00:39:09;4.95;;;2.28;;
13795;SDS011;40911;51.552;9.874;2023-07-13T00:41:31;5.75;;;2.13;;
13795;SDS011;40911;51.552;9.874;2023-07-13T00:43:53;4.03;;;1.85;;
13795;SDS011;40911;51.552;9.874;2023-07-13T00:46:19;2.47;;;1.75;;
13795;SDS011;40911;51.552;9.874;2023-07-13T00:48:46;3.80;;;1.88;;
13795;SDS011;40911;51.552;9.874;2023-07-13T00:51:09;4.10;;;1.70;;
13795;SDS011;40911;51.552;9.874;2023-07-13T00:53:33;3.67;;;1.88;;
13795;SDS011;40911;51.552;9.874;2023-07-13T00:55:55;6.82;;;2.13;;
13795;SDS011;40911;51.552;9.874;2023-07-13T00:58:17;3.03;;;2.00;;
13795;SDS011;40911;51.552;9.874;2023-07-13T01:00:39;6.82;;;1.90;;
13795;SDS011;40911;51.552;9.874;2023-07-13T01:03:01;3.78;;;2.03;;
13795;SDS011;40911;51.552;9.874;2023-07-13T01:05:26;3.25;;;1.90;;
13795;SDS011;40911;51.552;9.874;2023-07-13T01:07:48;4.80;;;1.75;;
13795;SDS011;40911;51.552;9.874;2023-07-13T01:10:12;3.38;;;2.00;;
13795;SDS011;40911;51.552;9.874;2023-07-13T01:12:34;4.60;;;1.90;;
13795;SDS011;40911;51.552;9.874;2023-07-13T01:14:57;6.68;;;1.98;;
13795;SDS011;40911;51.552;9.874;2023-07-13T01:17:20;3.30;;;1.75;;
13795;SDS011;40911;51.552;9.874;2023-07-13T01:19:42;3.03;;;1.80;;
13795;SDS011;40911;51.552;9.874;2023-07-13T01:22:08;7.20;;;2.00;;
13795;SDS011;40911;51.552;9.874;2023-07-13T01:24:33;2.45;;;1.70;;
13795;SDS011;40911;51.552;9.874;2023-07-13T01:26:55;2.95;;;1.88;;
13795;SDS011;40911;51.552;9.874;2023-07-13T01:29:16;3.60;;;1.95;;
13795;SDS011;40911;51.552;9.874;2023-07-13T01:34:00;6.95;;;1.90;;
13795;SDS011;40911;51.552;9.874;2023-07-13T01:36:21;4.15;;;2.15;;
13795;SDS011;40911;51.552;9.874;2023-07-13T01:38:45;2.83;;;1.90;;
13795;SDS011;40911;51.552;9.874;2023-07-13T01:41:06;4.55;;;2.00;;
13795;SDS011;40911;51.552;9.874;2023-07-13T01:43:28;5.25;;;1.90;;
13795;SDS011;40911;51.552;9.874;2023-07-13T01:45:50;3.40;;;1.95;;
13795;SDS011;40911;51.552;9.874;2023-07-13T01:48:12;4.10;;;1.50;;
13795;SDS011;40911;51.552;9.874;2023-07-13T01:50:34;2.75;;;2.00;;
13795;SDS011;40911;51.552;9.874;2023-07-13T01:52:56;2.67;;;1.92;;
13795;SDS011;40911;51.552;9.874;2023-07-13T01:55:20;5.90;;;1.88;;
13795;SDS011;40911;51.552;9.874;2023-07-13T01:57:42;4.40;;;2.00;;
13795;SDS011;40911;51.552;9.874;2023-07-13T02:00:04;6.63;;;2.03;;
13795;SDS011;40911;51.552;9.874;2023-07-13T02:02:27;5.97;;;2.00;;
13795;SDS011;40911;51.552;9.874;2023-07-13T02:07:10;4.18;;;2.20;;
13795;SDS011;40911;51.552;9.874;2023-07-13T02:09:32;2.97;;;2.00;;
13795;SDS011;40911;51.552;9.874;2023-07-13T02:14:16;2.22;;;1.80;;
13795;SDS011;40911;51.552;9.874;2023-07-13T02:16:38;3.40;;;1.98;;
13795;SDS011;40911;51.552;9.874;2023-07-13T02:21:22;7.20;;;2.40;;
13795;SDS011;40911;51.552;9.874;2023-07-13T02:23:44;4.07;;;2.03;;
13795;SDS011;40911;51.552;9.874;2023-07-13T02:26:06;3.53;;;2.20;;
13795;SDS011;40911;51.552;9.874;2023-07-13T02:28:29;5.28;;;1.95;;
13795;SDS011;40911;51.552;9.874;2023-07-13T02:30:51;2.67;;;1.92;;
13795;SDS011;40911;51.552;9.874;2023-07-13T02:33:12;4.13;;;2.15;;
13795;SDS011;40911;51.552;9.874;2023-07-13T02:35:34;3.17;;;2.08;;
13795;SDS011;40911;51.552;9.874;2023-07-13T02:40:18;5.35;;;2.08;;
13795;SDS011;40911;51.552;9.874;2023-07-13T02:42:40;5.30;;;2.00;;
13795;SDS011;40911;51.552;9.874;2023-07-13T02:45:04;5.18;;;2.20;;
13795;SDS011;40911;51.552;9.874;2023-07-13T02:47:26;5.03;;;2.22;;
13795;SDS011;40911;51.552;9.874;2023-07-13T02:49:48;4.22;;;1.90;;
13795;SDS011;40911;51.552;9.874;2023-07-13T02:52:10;7.15;;;2.28;;
13795;SDS011;40911;51.552;9.874;2023-07-13T02:54:31;3.80;;;1.98;;
13795;SDS011;40911;51.552;9.874;2023-07-13T02:56:53;5.20;;;2.17;;
13795;SDS011;40911;51.552;9.874;2023-07-13T02:59:15;2.97;;;1.85;;
13795;SDS011;40911;51.552;9.874;2023-07-13T03:01:38;5.10;;;2.22;;
13795;SDS011;40911;51.552;9.874;2023-07-13T03:04:00;9.65;;;2.50;;
13795;SDS011;40911;51.552;9.874;2023-07-13T03:08:44;3.42;;;2.10;;
13795;SDS011;40911;51.552;9.874;2023-07-13T03:11:07;4.13;;;1.92;;
13795;SDS011;40911;51.552;9.874;2023-07-13T03:13:31;2.90;;;2.10;;
13795;SDS011;40911;51.552;9.874;2023-07-13T03:15:52;4.90;;;2.10;;
13795;SDS011;40911;51.552;9.874;2023-07-13T03:20:37;5.45;;;2.10;;
13795;SDS011;40911;51.552;9.874;2023-07-13T03:22:59;5.38;;;1.92;;
13795;SDS011;40911;51.552;9.874;2023-07-13T03:27:42;3.88;;;2.45;;
13795;SDS011;40911;51.552;9.874;2023-07-13T03:32:26;3.03;;;2.20;;
13795;SDS011;40911;51.552;9.874;2023-07-13T03:37:11;3.83;;;2.33;;
13795;SDS011;40911;51.552;9.874;2023-07-13T03:41:54;5.72;;;2.30;;
13795;SDS011;40911;51.552;9.874;2023-07-13T03:44:16;2.97;;;2.30;;
13795;SDS011;40911;51.552;9.874;2023-07-13T03:46:38;2.97;;;2.20;;
13795;SDS011;40911;51.552;9.874;2023-07-13T03:49:00;6.13;;;2.40;;
13795;SDS011;40911;51.552;9.874;2023-07-13T03:51:24;3.53;;;2.08;;
13795;SDS011;40911;51.552;9.874;2023-07-13T03:53:46;5.97;;;2.60;;
13795;SDS011;40911;51.552;9.874;2023-07-13T03:56:09;5.13;;;2.17;;
13795;SDS011;40911;51.552;9.874;2023-07-13T03:58:32;4.45;;;2.20;;
13795;SDS011;40911;51.552;9.874;2023-07-13T04:00:55;4.00;;;2.58;;
13795;SDS011;40911;51.552;9.874;2023-07-13T04:03:17;4.10;;;2.08;;
13795;SDS011;40911;51.552;9.874;2023-07-13T04:05:39;5.25;;;2.30;;
13795;SDS011;40911;51.552;9.874;2023-07-13T04:08:02;3.92;;;2.10;;
13795;SDS011;40911;51.552;9.874;2023-07-13T04:10:24;4.32;;;2.20;;
13795;SDS011;40911;51.552;9.874;2023-07-13T04:15:08;6.38;;;2.88;;
13795;SDS011;40911;51.552;9.874;2023-07-13T04:17:30;3.88;;;2.03;;
13795;SDS011;40911;51.552;9.874;2023-07-13T04:22:13;7.43;;;2.30;;
13795;SDS011;40911;51.552;9.874;2023-07-13T04:26:58;4.38;;;2.15;;
13795;SDS011;40911;51.552;9.874;2023-07-13T04:29:20;4.15;;;2.17;;
13795;SDS011;40911;51.552;9.874;2023-07-13T04:34:04;4.20;;;2.17;;
13795;SDS011;40911;51.552;9.874;2023-07-13T04:36:26;3.58;;;2.03;;
13795;SDS011;40911;51.552;9.874;2023-07-13T04:41:11;2.60;;;2.08;;
13795;SDS011;40911;51.552;9.874;2023-07-13T04:43:34;5.03;;;2.20;;
13795;SDS011;40911;51.552;9.874;2023-07-13T04:45:56;4.28;;;2.10;;
13795;SDS011;40911;51.552;9.874;2023-07-13T04:48:19;3.88;;;2.03;;
13795;SDS011;40911;51.552;9.874;2023-07-13T04:50:41;4.93;;;2.20;;
13795;SDS011;40911;51.552;9.874;2023-07-13T04:53:03;7.88;;;2.13;;
13795;SDS011;40911;51.552;9.874;2023-07-13T04:55:34;3.33;;;2.22;;
13795;SDS011;40911;51.552;9.874;2023-07-13T04:57:57;4.93;;;2.15;;
13795;SDS011;40911;51.552;9.874;2023-07-13T05:00:19;7.07;;;2.25;;
13795;SDS011;40911;51.552;9.874;2023-07-13T05:02:43;5.15;;;2.10;;
13795;SDS011;40911;51.552;9.874;2023-07-13T05:05:06;4.82;;;1.90;;
13795;SDS011;40911;51.552;9.874;2023-07-13T05:07:27;4.30;;;1.80;;
13795;SDS011;40911;51.552;9.874;2023-07-13T05:12:10;2.35;;;1.80;;
13795;SDS011;40911;51.552;9.874;2023-07-13T05:14:34;2.83;;;1.90;;
13795;SDS011;40911;51.552;9.874;2023-07-13T05:16:55;4.15;;;2.03;;
13795;SDS011;40911;51.552;9.874;2023-07-13T05:19:18;3.17;;;1.85;;
13795;SDS011;40911;51.552;9.874;2023-07-13T05:24:01;6.32;;;1.73;;
13795;SDS011;40911;51.552;9.874;2023-07-13T05:28:44;5.57;;;1.95;;
13795;SDS011;40911;51.552;9.874;2023-07-13T05:31:08;8.18;;;2.25;;
13795;SDS011;40911;51.552;9.874;2023-07-13T05:33:30;6.55;;;1.90;;
13795;SDS011;40911;51.552;9.874;2023-07-13T05:35:52;5.07;;;1.60;;
13795;SDS011;40911;51.552;9.874;2023-07-13T05:38:13;5.18;;;1.80;;
13795;SDS011;40911;51.552;9.874;2023-07-13T05:42:56;3.88;;;2.58;;
13795;SDS011;40911;51.552;9.874;2023-07-13T05:45:18;5.20;;;3.70;;
13795;SDS011;40911;51.552;9.874;2023-07-13T05:47:41;6.38;;;4.30;;
13795;SDS011;40911;51.552;9.874;2023-07-13T05:50:04;4.50;;;4.00;;
13795;SDS011;40911;51.552;9.874;2023-07-13T05:52:26;6.57;;;3.50;;
13795;SDS011;40911;51.552;9.874;2023-07-13T05:54:48;4.68;;;2.90;;
13795;SDS011;40911;51.552;9.874;2023-07-13T05:57:09;7.05;;;2.88;;
13795;SDS011;40911;51.552;9.874;2023-07-13T05:59:31;4.32;;;2.55;;
13795;SDS011;40911;51.552;9.874;2023-07-13T06:01:53;4.70;;;2.33;;
13795;SDS011;40911;51.552;9.874;2023-07-13T06:04:16;5.13;;;2.47;;
13795;SDS011;40911;51.552;9.874;2023-07-13T06:06:37;2.58;;;2.00;;
13795;SDS011;40911;51.552;9.874;2023-07-13T06:08:59;5.20;;;1.67;;
13795;SDS011;40911;51.552;9.874;2023-07-13T06:11:22;5.40;;;1.50;;
13795;SDS011;40911;51.552;9.874;2023-07-13T06:13:47;5.45;;;1.52;;
13795;SDS011;40911;51.552;9.874;2023-07-13T06:16:09;4.57;;;1.50;;
13795;SDS011;40911;51.552;9.874;2023-07-13T06:18:31;2.67;;;1.20;;
13795;SDS011;40911;51.552;9.874;2023-07-13T06:20:55;4.45;;;1.35;;
13795;SDS011;40911;51.552;9.874;2023-07-13T06:23:17;5.53;;;1.30;;
13795;SDS011;40911;51.552;9.874;2023-07-13T06:25:39;4.00;;;1.40;;
13795;SDS011;40911;51.552;9.874;2023-07-13T06:28:01;4.47;;;1.40;;
13795;SDS011;40911;51.552;9.874;2023-07-13T06:30:23;3.72;;;1.20;;
13795;SDS011;40911;51.552;9.874;2023-07-13T06:32:45;3.55;;;1.10;;
13795;SDS011;40911;51.552;9.874;2023-07-13T06:35:07;3.53;;;1.40;;
13795;SDS011;40911;51.552;9.874;2023-07-13T06:37:34;3.78;;;1.45;;
13795;SDS011;40911;51.552;9.874;2023-07-13T06:39:55;4.45;;;1.40;;
13795;SDS011;40911;51.552;9.874;2023-07-13T06:42:17;7.43;;;1.65;;
13795;SDS011;40911;51.552;9.874;2023-07-13T06:47:00;5.88;;;1.65;;
13795;SDS011;40911;51.552;9.874;2023-07-13T06:49:22;5.72;;;1.33;;
13795;SDS011;40911;51.552;9.874;2023-07-13T06:54:06;4.50;;;1.35;;
13795;SDS011;40911;51.552;9.874;2023-07-13T06:56:28;2.58;;;1.20;;
13795;SDS011;40911;51.552;9.874;2023-07-13T06:58:50;2.88;;;1.40;;
13795;SDS011;40911;51.552;9.874;2023-07-13T07:01:12;4.70;;;1.30;;
13795;SDS011;40911;51.552;9.874;2023-07-13T07:03:34;4.00;;;1.20;;
13795;SDS011;40911;51.552;9.874;2023-07-13T07:05:59;2.58;;;1.00;;
13795;SDS011;40911;51.552;9.874;2023-07-13T07:08:22;3.30;;;1.30;;
13795;SDS011;40911;51.552;9.874;2023-07-13T07:10:45;3.80;;;1.30;;
13795;SDS011;40911;51.552;9.874;2023-07-13T07:13:06;2.50;;;1.13;;
13795;SDS011;40911;51.552;9.874;2023-07-13T07:15:28;2.95;;;1.17;;
13795;SDS011;40911;51.552;9.874;2023-07-13T07:17:50;2.45;;;0.90;;
13795;SDS011;40911;51.552;9.874;2023-07-13T07:20:12;4.15;;;1.42;;
13795;SDS011;40911;51.552;9.874;2023-07-13T07:22:33;4.03;;;1.15;;
13795;SDS011;40911;51.552;9.874;2023-07-13T07:24:55;3.70;;;1.25;;
13795;SDS011;40911;51.552;9.874;2023-07-13T07:27:18;4.50;;;1.15;;
13795;SDS011;40911;51.552;9.874;2023-07-13T07:29:40;3.80;;;1.27;;
13795;SDS011;40911;51.552;9.874;2023-07-13T07:32:02;2.13;;;0.90;;
13795;SDS011;40911;51.552;9.874;2023-07-13T07:34:24;1.98;;;0.90;;
13795;SDS011;40911;51.552;9.874;2023-07-13T07:36:46;2.72;;;1.23;;
13795;SDS011;40911;51.552;9.874;2023-07-13T07:41:29;2.15;;;1.13;;
13795;SDS011;40911;51.552;9.874;2023-07-13T07:43:52;5.20;;;1.17;;
13795;SDS011;40911;51.552;9.874;2023-07-13T07:46:14;3.83;;;1.17;;
13795;SDS011;40911;51.552;9.874;2023-07-13T07:48:36;3.00;;;0.93;;
13795;SDS011;40911;51.552;9.874;2023-07-13T07:50:57;3.47;;;1.10;;
13795;SDS011;40911;51.552;9.874;2023-07-13T07:53:19;4.00;;;1.00;;
13795;SDS011;40911;51.552;9.874;2023-07-13T07:55:41;3.45;;;1.30;;
13795;SDS011;40911;51.552;9.874;2023-07-13T07:58:02;4.55;;;1.25;;
13795;SDS011;40911;51.552;9.874;2023-07-13T08:00:26;2.05;;;0.90;;
13795;SDS011;40911;51.552;9.874;2023-07-13T08:02:50;2.15;;;1.08;;
13795;SDS011;40911;51.552;9.874;2023-07-13T08:05:13;1.63;;;1.02;;
13795;SDS011;40911;51.552;9.874;2023-07-13T08:07:35;3.97;;;0.90;;
13795;SDS011;40911;51.552;9.874;2023-07-13T08:09:57;2.88;;;0.88;;
13795;SDS011;40911;51.552;9.874;2023-07-13T08:12:19;2.00;;;0.80;;
13795;SDS011;40911;51.552;9.874;2023-07-13T08:14:41;4.65;;;1.10;;
13795;SDS011;40911;51.552;9.874;2023-07-13T08:17:04;3.10;;;1.00;;
13795;SDS011;40911;51.552;9.874;2023-07-13T08:19:26;6.95;;;1.20;;
13795;SDS011;40911;51.552;9.874;2023-07-13T08:21:48;1.48;;;1.00;;
13795;SDS011;40911;51.552;9.874;2023-07-13T08:24:09;2.40;;;1.00;;
13795;SDS011;40911;51.552;9.874;2023-07-13T08:26:31;4.28;;;1.08;;
13795;SDS011;40911;51.552;9.874;2023-07-13T08:28:53;2.65;;;1.00;;
13795;SDS011;40911;51.552;9.874;2023-07-13T08:31:14;4.13;;;1.08;;
13795;SDS011;40911;51.552;9.874;2023-07-13T08:33:38;2.67;;;1.10;;
13795;SDS011;40911;51.552;9.874;2023-07-13T08:36:00;2.65;;;1.20;;
13795;SDS011;40911;51.552;9.874;2023-07-13T08:38:22;2.22;;;0.90;;
13795;SDS011;40911;51.552;9.874;2023-07-13T08:40:45;4.82;;;1.20;;
13795;SDS011;40911;51.552;9.874;2023-07-13T08:43:12;3.20;;;1.30;;
13795;SDS011;40911;51.552;9.874;2023-07-13T08:45:38;2.85;;;0.98;;
13795;SDS011;40911;51.552;9.874;2023-07-13T08:48:05;2.47;;;1.10;;
13795;SDS011;40911;51.552;9.874;2023-07-13T08:50:33;3.17;;;0.80;;
13795;SDS011;40911;51.552;9.874;2023-07-13T08:52:59;6.20;;;1.23;;
13795;SDS011;40911;51.552;9.874;2023-07-13T08:55:24;4.57;;;0.98;;
13795;SDS011;40911;51.552;9.874;2023-07-13T08:57:53;2.42;;;1.00;;
13795;SDS011;40911;51.552;9.874;2023-07-13T09:00:21;4.30;;;1.17;;
13795;SDS011;40911;51.552;9.874;2023-07-13T09:02:45;2.55;;;0.90;;
13795;SDS011;40911;51.552;9.874;2023-07-13T09:05:14;2.03;;;1.00;;
13795;SDS011;40911;51.552;9.874;2023-07-13T09:07:43;2.72;;;1.00;;
13795;SDS011;40911;51.552;9.874;2023-07-13T09:10:14;3.80;;;1.00;;
13795;SDS011;40911;51.552;9.874;2023-07-13T09:12:40;3.15;;;1.10;;
13795;SDS011;40911;51.552;9.874;2023-07-13T09:15:14;4.23;;;1.20;;
13795;SDS011;40911;51.552;9.874;2023-07-13T09:17:45;3.42;;;1.00;;
13795;SDS011;40911;51.552;9.874;2023-07-13T09:20:16;1.88;;;0.90;;
13795;SDS011;40911;51.552;9.874;2023-07-13T09:22:44;1.73;;;1.00;;
13795;SDS011;40911;51.552;9.874;2023-07-13T09:25:12;3.50;;;1.10;;
13795;SDS011;40911;51.552;9.874;2023-07-13T09:27:44;2.78;;;1.10;;
13795;SDS011;40911;51.552;9.874;2023-07-13T09:30:23;2.72;;;1.10;;
13795;SDS011;40911;51.552;9.874;2023-07-13T09:32:51;1.58;;;0.82;;
13795;SDS011;40911;51.552;9.874;2023-07-13T09:35:15;3.65;;;1.23;;
13795;SDS011;40911;51.552;9.874;2023-07-13T09:37:38;1.60;;;1.00;;
13795;SDS011;40911;51.552;9.874;2023-07-13T09:40:03;3.15;;;1.05;;
13795;SDS011;40911;51.552;9.874;2023-07-13T09:42:31;2.42;;;0.90;;
13795;SDS011;40911;51.552;9.874;2023-07-13T09:44:54;2.03;;;1.00;;
13795;SDS011;40911;51.552;9.874;2023-07-13T09:47:18;2.22;;;0.93;;
13795;SDS011;40911;51.552;9.874;2023-07-13T09:49:42;4.28;;;0.90;;
13795;SDS011;40911;51.552;9.874;2023-07-13T09:52:06;3.08;;;0.93;;
13795;SDS011;40911;51.552;9.874;2023-07-13T09:54:32;2.13;;;0.88;;
13795;SDS011;40911;51.552;9.874;2023-07-13T09:56:57;3.45;;;1.02;;
13795;SDS011;40911;51.552;9.874;2023-07-13T09:59:20;4.25;;;1.17;;
13795;SDS011;40911;51.552;9.874;2023-07-13T10:01:44;4.70;;;0.88;;
13795;SDS011;40911;51.552;9.874;2023-07-13T10:04:10;2.33;;;1.02;;
13795;SDS011;40911;51.552;9.874;2023-07-13T10:06:33;3.88;;;0.98;;
13795;SDS011;40911;51.552;9.874;2023-07-13T10:08:56;2.90;;;0.70;;
13795;SDS011;40911;51.552;9.874;2023-07-13T10:11:19;1.25;;;0.73;;
13795;SDS011;40911;51.552;9.874;2023-07-13T10:13:44;1.33;;;0.85;;
13795;SDS011;40911;51.552;9.874;2023-07-13T10:16:12;2.35;;;0.90;;
13795;SDS011;40911;51.552;9.874;2023-07-13T10:18:38;1.92;;;0.85;;
13795;SDS011;40911;51.552;9.874;2023-07-13T10:21:11;3.38;;;1.20;;
13795;SDS011;40911;51.552;9.874;2023-07-13T10:23:35;2.92;;;0.98;;
13795;SDS011;40911;51.552;9.874;2023-07-13T10:25:56;5.00;;;0.85;;
13795;SDS011;40911;51.552;9.874;2023-07-13T10:28:24;2.17;;;0.90;;
13795;SDS011;40911;51.552;9.874;2023-07-13T10:30:50;3.45;;;0.90;;
13795;SDS011;40911;51.552;9.874;2023-07-13T10:33:14;3.90;;;1.13;;
13795;SDS011;40911;51.552;9.874;2023-07-13T10:35:35;6.03;;;1.40;;
13795;SDS011;40911;51.552;9.874;2023-07-13T10:38:00;2.42;;;0.90;;
13795;SDS011;40911;51.552;9.874;2023-07-13T10:40:27;4.13;;;0.98;;
13795;SDS011;40911;51.552;9.874;2023-07-13T10:42:54;2.70;;;1.00;;
13795;SDS011;40911;51.552;9.874;2023-07-13T10:45:19;2.70;;;1.20;;
13795;SDS011;40911;51.552;9.874;2023-07-13T10:47:44;2.47;;;1.08;;
13795;SDS011;40911;51.552;9.874;2023-07-13T10:50:08;4.47;;;1.23;;
13795;SDS011;40911;51.552;9.874;2023-07-13T10:52:40;4.95;;;1.10;;
13795;SDS011;40911;51.552;9.874;2023-07-13T10:55:04;3.53;;;1.33;;
13795;SDS011;40911;51.552;9.874;2023-07-13T10:57:27;6.25;;;1.25;;
13795;SDS011;40911;51.552;9.874;2023-07-13T10:59:49;3.17;;;1.08;;
13795;SDS011;40911;51.552;9.874;2023-07-13T11:02:35;4.70;;;1.15;;
13795;SDS011;40911;51.552;9.874;2023-07-13T11:04:58;2.65;;;0.95;;
13795;SDS011;40911;51.552;9.874;2023-07-13T11:07:51;2.05;;;1.10;;
13795;SDS011;40911;51.552;9.874;2023-07-13T11:13:29;2.60;;;1.00;;
13795;SDS011;40911;51.552;9.874;2023-07-13T11:15:59;3.22;;;1.00;;
13795;SDS011;40911;51.552;9.874;2023-07-13T11:18:22;2.17;;;0.98;;
13795;SDS011;40911;51.552;9.874;2023-07-13T11:20:46;3.30;;;1.00;;
13795;SDS011;40911;51.552;9.874;2023-07-13T11:23:21;2.67;;;1.13;;
13795;SDS011;40911;51.552;9.874;2023-07-13T11:25:51;3.63;;;1.00;;
13795;SDS011;40911;51.552;9.874;2023-07-13T11:28:16;1.40;;;0.90;;
13795;SDS011;40911;51.552;9.874;2023-07-13T11:30:43;1.85;;;1.08;;
13795;SDS011;40911;51.552;9.874;2023-07-13T11:33:16;3.13;;;0.98;;
13795;SDS011;40911;51.552;9.874;2023-07-13T11:35:51;3.03;;;0.93;;
13795;SDS011;40911;51.552;9.874;2023-07-13T11:38:20;3.50;;;1.20;;
13795;SDS011;40911;51.552;9.874;2023-07-13T11:40:44;2.90;;;1.08;;
13795;SDS011;40911;51.552;9.874;2023-07-13T11:43:07;2.38;;;1.00;;
13795;SDS011;40911;51.552;9.874;2023-07-13T11:45:30;3.83;;;1.10;;
13795;SDS011;40911;51.552;9.874;2023-07-13T11:47:52;5.10;;;0.90;;
13795;SDS011;40911;51.552;9.874;2023-07-13T11:50:18;3.50;;;1.10;;
13795;SDS011;40911;51.552;9.874;2023-07-13T11:52:42;3.05;;;1.20;;
13795;SDS011;40911;51.552;9.874;2023-07-13T11:55:12;1.50;;;0.90;;
13795;SDS011;40911;51.552;9.874;2023-07-13T11:57:37;4.15;;;0.80;;
13795;SDS011;40911;51.552;9.874;2023-07-13T12:00:04;2.50;;;0.98;;
13795;SDS011;40911;51.552;9.874;2023-07-13T12:02:32;3.13;;;1.05;;
13795;SDS011;40911;51.552;9.874;2023-07-13T12:04:57;3.42;;;0.88;;
13795;SDS011;40911;51.552;9.874;2023-07-13T12:07:20;3.42;;;1.23;;
13795;SDS011;40911;51.552;9.874;2023-07-13T12:09:43;4.72;;;1.00;;
13795;SDS011;40911;51.552;9.874;2023-07-13T12:12:10;4.35;;;1.10;;
13795;SDS011;40911;51.552;9.874;2023-07-13T12:14:33;2.63;;;1.27;;
13795;SDS011;40911;51.552;9.874;2023-07-13T12:16:55;3.70;;;0.90;;
13795;SDS011;40911;51.552;9.874;2023-07-13T12:19:17;1.40;;;0.90;;
13795;SDS011;40911;51.552;9.874;2023-07-13T12:21:42;4.28;;;1.17;;
13795;SDS011;40911;51.552;9.874;2023-07-13T12:24:05;3.30;;;1.08;;
13795;SDS011;40911;51.552;9.874;2023-07-13T12:26:37;3.08;;;1.00;;
13795;SDS011;40911;51.552;9.874;2023-07-13T12:28:59;2.30;;;0.98;;
13795;SDS011;40911;51.552;9.874;2023-07-13T12:31:23;1.65;;;1.08;;
13795;SDS011;40911;51.552;9.874;2023-07-13T12:33:47;3.22;;;1.17;;
13795;SDS011;40911;51.552;9.874;2023-07-13T12:36:10;2.13;;;0.93;;
13795;SDS011;40911;51.552;9.874;2023-07-13T12:38:33;3.10;;;1.10;;
13795;SDS011;40911;51.552;9.874;2023-07-13T12:40:55;1.90;;;1.10;;
13795;SDS011;40911;51.552;9.874;2023-07-13T12:43:19;4.05;;;1.15;;
13795;SDS011;40911;51.552;9.874;2023-07-13T12:45:54;3.25;;;1.10;;
13795;SDS011;40911;51.552;9.874;2023-07-13T12:48:18;3.47;;;1.27;;
13795;SDS011;40911;51.552;9.874;2023-07-13T12:50:41;3.75;;;1.10;;
13795;SDS011;40911;51.552;9.874;2023-07-13T12:53:21;2.05;;;1.00;;
13795;SDS011;40911;51.552;9.874;2023-07-13T12:55:52;2.13;;;1.10;;
13795;SDS011;40911;51.552;9.874;2023-07-13T12:58:21;1.67;;;1.00;;
13795;SDS011;40911;51.552;9.874;2023-07-13T13:00:50;2.38;;;1.20;;
13795;SDS011;40911;51.552;9.874;2023-07-13T13:03:16;2.17;;;1.08;;
13795;SDS011;40911;51.552;9.874;2023-07-13T13:05:45;2.00;;;1.08;;
13795;SDS011;40911;51.552;9.874;2023-07-13T13:08:07;5.25;;;1.25;;
13795;SDS011;40911;51.552;9.874;2023-07-13T13:10:31;2.42;;;1.52;;
13795;SDS011;40911;51.552;9.874;2023-07-13T13:12:53;2.45;;;1.27;;
13795;SDS011;40911;51.552;9.874;2023-07-13T13:15:16;2.88;;;1.30;;
13795;SDS011;40911;51.552;9.874;2023-07-13T13:17:38;3.67;;;1.38;;
13795;SDS011;40911;51.552;9.874;2023-07-13T13:20:00;3.22;;;1.20;;
13795;SDS011;40911;51.552;9.874;2023-07-13T13:22:22;1.58;;;1.08;;
13795;SDS011;40911;51.552;9.874;2023-07-13T13:24:44;4.80;;;1.30;;
13795;SDS011;40911;51.552;9.874;2023-07-13T13:27:09;2.72;;;1.17;;
13795;SDS011;40911;51.552;9.874;2023-07-13T13:29:36;2.25;;;1.38;;
13795;SDS011;40911;51.552;9.874;2023-07-13T13:32:01;4.82;;;1.30;;
13795;SDS011;40911;51.552;9.874;2023-07-13T13:34:26;2.50;;;1.30;;
13795;SDS011;40911;51.552;9.874;2023-07-13T13:36:47;2.72;;;1.20;;
13795;SDS011;40911;51.552;9.874;2023-07-13T13:39:20;2.03;;;1.20;;
13795;SDS011;40911;51.552;9.874;2023-07-13T13:44:10;2.08;;;1.20;;
13795;SDS011;40911;51.552;9.874;2023-07-13T13:46:31;1.55;;;1.20;;
13795;SDS011;40911;51.552;9.874;2023-07-13T13:48:55;2.42;;;1.35;;
13795;SDS011;40911;51.552;9.874;2023-07-13T13:51:18;1.70;;;1.17;;
13795;SDS011;40911;51.552;9.874;2023-07-13T13:53:41;2.08;;;0.98;;
13795;SDS011;40911;51.552;9.874;2023-07-13T13:56:04;3.00;;;1.25;;
13795;SDS011;40911;51.552;9.874;2023-07-13T13:58:26;2.00;;;1.10;;
13795;SDS011;40911;51.552;9.874;2023-07-13T14:00:48;1.63;;;1.10;;
13795;SDS011;40911;51.552;9.874;2023-07-13T14:03:13;2.60;;;1.20;;
13795;SDS011;40911;51.552;9.874;2023-07-13T14:05:38;1.83;;;1.17;;
13795;SDS011;40911;51.552;9.874;2023-07-13T14:08:00;2.00;;;1.20;;
13795;SDS011;40911;51.552;9.874;2023-07-13T14:10:22;4.68;;;1.52;;
13795;SDS011;40911;51.552;9.874;2023-07-13T14:12:44;3.60;;;1.63;;
13795;SDS011;40911;51.552;9.874;2023-07-13T14:15:08;3.20;;;1.33;;
13795;SDS011;40911;51.552;9.874;2023-07-13T14:17:39;1.92;;;1.20;;
13795;SDS011;40911;51.552;9.874;2023-07-13T14:20:01;1.80;;;1.30;;
13795;SDS011;40911;51.552;9.874;2023-07-13T14:22:35;1.63;;;1.30;;
13795;SDS011;40911;51.552;9.874;2023-07-13T14:24:58;3.78;;;1.30;;
13795;SDS011;40911;51.552;9.874;2023-07-13T14:27:26;3.80;;;1.83;;
13795;SDS011;40911;51.552;9.874;2023-07-13T14:29:48;3.67;;;1.70;;
13795;SDS011;40911;51.552;9.874;2023-07-13T14:32:10;1.58;;;1.23;;
13795;SDS011;40911;51.552;9.874;2023-07-13T14:34:32;2.70;;;1.58;;
13795;SDS011;40911;51.552;9.874;2023-07-13T14:36:54;2.85;;;1.45;;
13795;SDS011;40911;51.552;9.874;2023-07-13T14:39:18;3.83;;;1.60;;
13795;SDS011;40911;51.552;9.874;2023-07-13T14:41:41;2.88;;;1.50;;
13795;SDS011;40911;51.552;9.874;2023-07-13T14:44:07;5.20;;;1.40;;
13795;SDS011;40911;51.552;9.874;2023-07-13T14:46:33;1.90;;;1.40;;
13795;SDS011;40911;51.552;9.874;2023-07-13T14:48:59;2.65;;;1.52;;
13795;SDS011;40911;51.552;9.874;2023-07-13T14:51:23;3.65;;;1.45;;
13795;SDS011;40911;51.552;9.874;2023-07-13T14:53:45;4.82;;;1.80;;
13795;SDS011;40911;51.552;9.874;2023-07-13T14:56:11;2.67;;;1.40;;
13795;SDS011;40911;51.552;9.874;2023-07-13T14:58:36;3.95;;;1.40;;
13795;SDS011;40911;51.552;9.874;2023-07-13T15:01:01;4.15;;;1.77;;
13795;SDS011;40911;51.552;9.874;2023-07-13T15:03:25;3.25;;;1.35;;
13795;SDS011;40911;51.552;9.874;2023-07-13T15:05:47;2.65;;;1.33;;
13795;SDS011;40911;51.552;9.874;2023-07-13T15:08:09;2.83;;;1.60;;
13795;SDS011;40911;51.552;9.874;2023-07-13T15:10:32;5.80;;;1.80;;
13795;SDS011;40911;51.552;9.874;2023-07-13T15:12:59;3.40;;;1.40;;
13795;SDS011;40911;51.552;9.874;2023-07-13T15:15:23;2.55;;;1.33;;
13795;SDS011;40911;51.552;9.874;2023-07-13T15:17:47;2.83;;;1.70;;
13795;SDS011;40911;51.552;9.874;2023-07-13T15:20:16;1.92;;;1.63;;
13795;SDS011;40911;51.552;9.874;2023-07-13T15:22:42;1.85;;;1.60;;
13795;SDS011;40911;51.552;9.874;2023-07-13T15:25:07;2.13;;;1.67;;
13795;SDS011;40911;51.552;9.874;2023-07-13T15:27:33;2.45;;;1.80;;
13795;SDS011;40911;51.552;9.874;2023-07-13T15:29:58;3.60;;;1.67;;
13795;SDS011;40911;51.552;9.874;2023-07-13T15:32:20;2.25;;;1.50;;
13795;SDS011;40911;51.552;9.874;2023-07-13T15:34:43;3.97;;;1.45;;
13795;SDS011;40911;51.552;9.874;2023-07-13T15:37:08;4.97;;;1.48;;
13795;SDS011;40911;51.552;9.874;2023-07-13T15:39:33;2.85;;;1.40;;
13795;SDS011;40911;51.552;9.874;2023-07-13T15:41:55;3.63;;;1.42;;
13795;SDS011;40911;51.552;9.874;2023-07-13T15:44:24;6.25;;;1.75;;